Terminal Aerodrome Forecast
Issued by NWS Houston/Galveston TX

Home | Current Version | Previous Version | Text Only | Print | Product List | Glossary On
Versions: 1 2 3 4 5 6 7 8 9 10 11 12 13 14 15 16 17 18 19 20 21 22 23 24 25 26 27 28 29 30
000
FTUS44 KHGX 261137
TAFHOU
TAF
KHOU 261137Z 2612/2712 VRB04KT P6SM -TSRA SCT020CB BKN250
      TEMPO 2612/2614 VRB10G20KT 2SM +TSRA BR BKN018CB
     FM261500 17007KT P6SM VCTS SCT040CB BKN250
      TEMPO 2617/2621 VRB10G20KT TSRA BKN030CB
     FM270100 VRB04KT P6SM FEW035 BKN100
     FM270600 VRB04KT P6SM BKN250=

USA.gov is the U.S. government's official web portal to all federal, state and local government web resources and services.